sensor_id;sensor_type;location;lat;lon;timestamp;P1;P2;P0
70243;PMS7003;57634;51.136;17.024;2022-11-20T00:00:55;19;17;10
70243;PMS7003;57634;51.136;17.024;2022-11-20T00:03:56;20;17;11
70243;PMS7003;57634;51.136;17.024;2022-11-20T00:06:58;18;14;10
70243;PMS7003;57634;51.136;17.024;2022-11-20T00:09:59;14;11;5
70243;PMS7003;57634;51.136;17.024;2022-11-20T00:13:00;19;18;10
70243;PMS7003;57634;51.136;17.024;2022-11-20T00:16:03;14;14;10
70243;PMS7003;57634;51.136;17.024;2022-11-20T00:19:05;15;13;9
70243;PMS7003;57634;51.136;17.024;2022-11-20T00:22:36;17;15;10
70243;PMS7003;57634;51.136;17.024;2022-11-20T00:25:37;16;14;9
70243;PMS7003;57634;51.136;17.024;2022-11-20T00:28:39;16;15;8
70243;PMS7003;57634;51.136;17.024;2022-11-20T00:31:40;23;22;14
70243;PMS7003;57634;51.136;17.024;2022-11-20T00:34:42;21;17;11
70243;PMS7003;57634;51.136;17.024;2022-11-20T00:37:43;20;16;11
70243;PMS7003;57634;51.136;17.024;2022-11-20T00:40:44;20;17;9
70243;PMS7003;57634;51.136;17.024;2022-11-20T00:43:46;18;16;10
70243;PMS7003;57634;51.136;17.024;2022-11-20T00:46:47;18;14;8
70243;PMS7003;57634;51.136;17.024;2022-11-20T00:49:48;18;16;10
70243;PMS7003;57634;51.136;17.024;2022-11-20T00:52:50;17;16;11
70243;PMS7003;57634;51.136;17.024;2022-11-20T00:55:55;17;16;9
70243;PMS7003;57634;51.136;17.024;2022-11-20T00:58:59;13;9;7
70243;PMS7003;57634;51.136;17.024;2022-11-20T01:02:29;14;12;9
70243;PMS7003;57634;51.136;17.024;2022-11-20T01:05:33;10;9;7
70243;PMS7003;57634;51.136;17.024;2022-11-20T01:08:36;18;15;9
70243;PMS7003;57634;51.136;17.024;2022-11-20T01:11:39;18;17;11
70243;PMS7003;57634;51.136;17.024;2022-11-20T01:14:42;22;19;12
70243;PMS7003;57634;51.136;17.024;2022-11-20T01:17:44;22;19;12
70243;PMS7003;57634;51.136;17.024;2022-11-20T01:20:45;34;27;16
70243;PMS7003;57634;51.136;17.024;2022-11-20T01:23:47;22;19;12
70243;PMS7003;57634;51.136;17.024;2022-11-20T01:26:50;21;18;12
70243;PMS7003;57634;51.136;17.024;2022-11-20T01:29:52;29;23;16
70243;PMS7003;57634;51.136;17.024;2022-11-20T01:32:54;27;23;15
70243;PMS7003;57634;51.136;17.024;2022-11-20T01:36:02;33;25;16
70243;PMS7003;57634;51.136;17.024;2022-11-20T01:39:32;27;23;15
70243;PMS7003;57634;51.136;17.024;2022-11-20T01:42:34;23;22;13
70243;PMS7003;57634;51.136;17.024;2022-11-20T01:49:08;19;18;10
70243;PMS7003;57634;51.136;17.024;2022-11-20T01:52:16;23;19;12
70243;PMS7003;57634;51.136;17.024;2022-11-20T01:55:49;17;13;7
70243;PMS7003;57634;51.136;17.024;2022-11-20T01:58:56;27;21;12
70243;PMS7003;57634;51.136;17.024;2022-11-20T02:02:01;27;20;12
70243;PMS7003;57634;51.136;17.024;2022-11-20T02:05:06;28;22;13
70243;PMS7003;57634;51.136;17.024;2022-11-20T02:08:16;24;22;13
70243;PMS7003;57634;51.136;17.024;2022-11-20T02:11:18;21;20;11
70243;PMS7003;57634;51.136;17.024;2022-11-20T02:14:20;22;21;10
70243;PMS7003;57634;51.136;17.024;2022-11-20T02:17:24;22;20;14
70243;PMS7003;57634;51.136;17.024;2022-11-20T02:20:27;15;12;8
70243;PMS7003;57634;51.136;17.024;2022-11-20T02:27:09;19;16;10
70243;PMS7003;57634;51.136;17.024;2022-11-20T02:30:13;18;16;9
70243;PMS7003;57634;51.136;17.024;2022-11-20T02:33:14;13;13;9
70243;PMS7003;57634;51.136;17.024;2022-11-20T02:36:16;18;15;9
70243;PMS7003;57634;51.136;17.024;2022-11-20T02:39:17;18;17;9
70243;PMS7003;57634;51.136;17.024;2022-11-20T02:42:21;18;15;10
70243;PMS7003;57634;51.136;17.024;2022-11-20T02:45:23;21;16;10
70243;PMS7003;57634;51.136;17.024;2022-11-20T02:48:25;16;13;6
70243;PMS7003;57634;51.136;17.024;2022-11-20T02:51:27;17;15;9
70243;PMS7003;57634;51.136;17.024;2022-11-20T02:54:56;15;13;9
70243;PMS7003;57634;51.136;17.024;2022-11-20T02:57:57;18;15;10
70243;PMS7003;57634;51.136;17.024;2022-11-20T03:00:58;18;13;7
70243;PMS7003;57634;51.136;17.024;2022-11-20T03:03:59;16;14;9
70243;PMS7003;57634;51.136;17.024;2022-11-20T03:07:01;11;11;8
70243;PMS7003;57634;51.136;17.024;2022-11-20T03:10:04;13;12;6
70243;PMS7003;57634;51.136;17.024;2022-11-20T03:13:07;17;12;9
70243;PMS7003;57634;51.136;17.024;2022-11-20T03:16:13;20;15;9
70243;PMS7003;57634;51.136;17.024;2022-11-20T03:19:15;20;14;9
70243;PMS7003;57634;51.136;17.024;2022-11-20T03:22:17;17;15;9
70243;PMS7003;57634;51.136;17.024;2022-11-20T03:25:18;17;14;8
70243;PMS7003;57634;51.136;17.024;2022-11-20T03:28:20;13;9;6
70243;PMS7003;57634;51.136;17.024;2022-11-20T03:31:23;19;15;9
70243;PMS7003;57634;51.136;17.024;2022-11-20T03:34:55;6;1;0
70243;PMS7003;57634;51.136;17.024;2022-11-20T03:37:57;11;10;5
70243;PMS7003;57634;51.136;17.024;2022-11-20T03:41:04;13;11;6
70243;PMS7003;57634;51.136;17.024;2022-11-20T03:44:08;16;12;6
70243;PMS7003;57634;51.136;17.024;2022-11-20T03:47:11;16;15;8
70243;PMS7003;57634;51.136;17.024;2022-11-20T03:50:12;13;11;6
70243;PMS7003;57634;51.136;17.024;2022-11-20T03:53:15;10;10;6
70243;PMS7003;57634;51.136;17.024;2022-11-20T03:56:18;16;13;7
70243;PMS7003;57634;51.136;17.024;2022-11-20T03:59:21;13;11;6
70243;PMS7003;57634;51.136;17.024;2022-11-20T04:02:22;17;13;7
70243;PMS7003;57634;51.136;17.024;2022-11-20T04:05:23;13;12;7
70243;PMS7003;57634;51.136;17.024;2022-11-20T04:08:25;13;12;7
70243;PMS7003;57634;51.136;17.024;2022-11-20T04:11:52;14;12;9
70243;PMS7003;57634;51.136;17.024;2022-11-20T04:14:54;15;13;8
70243;PMS7003;57634;51.136;17.024;2022-11-20T04:17:55;20;18;11
70243;PMS7003;57634;51.136;17.024;2022-11-20T04:20:57;25;16;11
70243;PMS7003;57634;51.136;17.024;2022-11-20T04:23:59;23;20;12
70243;PMS7003;57634;51.136;17.024;2022-11-20T04:27:00;22;17;11
70243;PMS7003;57634;51.136;17.024;2022-11-20T04:30:01;28;24;15
70243;PMS7003;57634;51.136;17.024;2022-11-20T04:33:03;26;24;15
70243;PMS7003;57634;51.136;17.024;2022-11-20T04:36:05;23;21;15
70243;PMS7003;57634;51.136;17.024;2022-11-20T04:39:11;21;18;12
70243;PMS7003;57634;51.136;17.024;2022-11-20T04:42:16;28;25;16
70243;PMS7003;57634;51.136;17.024;2022-11-20T04:45:56;27;25;15
70243;PMS7003;57634;51.136;17.024;2022-11-20T04:48:58;23;20;13
70243;PMS7003;57634;51.136;17.024;2022-11-20T04:52:00;31;26;17
70243;PMS7003;57634;51.136;17.024;2022-11-20T04:55:01;26;23;15
70243;PMS7003;57634;51.136;17.024;2022-11-20T04:58:02;27;23;14
70243;PMS7003;57634;51.136;17.024;2022-11-20T05:01:04;30;24;15
70243;PMS7003;57634;51.136;17.024;2022-11-20T05:04:10;21;19;12
70243;PMS7003;57634;51.136;17.024;2022-11-20T05:07:11;29;24;16
70243;PMS7003;57634;51.136;17.024;2022-11-20T05:10:13;25;22;16
70243;PMS7003;57634;51.136;17.024;2022-11-20T05:13:15;25;21;14
70243;PMS7003;57634;51.136;17.024;2022-11-20T05:16:20;29;25;15
70243;PMS7003;57634;51.136;17.024;2022-11-20T05:19:23;23;18;13
70243;PMS7003;57634;51.136;17.024;2022-11-20T05:22:51;32;27;17
70243;PMS7003;57634;51.136;17.024;2022-11-20T05:25:53;48;39;25
70243;PMS7003;57634;51.136;17.024;2022-11-20T05:28:55;35;29;17
70243;PMS7003;57634;51.136;17.024;2022-11-20T05:31:57;21;19;10
70243;PMS7003;57634;51.136;17.024;2022-11-20T05:34:58;24;24;15
70243;PMS7003;57634;51.136;17.024;2022-11-20T05:37:59;27;26;15
70243;PMS7003;57634;51.136;17.024;2022-11-20T05:41:09;24;22;15
70243;PMS7003;57634;51.136;17.024;2022-11-20T05:44:15;25;19;12
70243;PMS7003;57634;51.136;17.024;2022-11-20T05:47:16;26;23;13
70243;PMS7003;57634;51.136;17.024;2022-11-20T05:50:17;29;23;12
70243;PMS7003;57634;51.136;17.024;2022-11-20T05:53:18;19;15;6
70243;PMS7003;57634;51.136;17.024;2022-11-20T05:56:20;25;21;14
70243;PMS7003;57634;51.136;17.024;2022-11-20T05:59:49;25;22;15
70243;PMS7003;57634;51.136;17.024;2022-11-20T06:02:51;27;21;14
70243;PMS7003;57634;51.136;17.024;2022-11-20T06:05:52;26;22;13
70243;PMS7003;57634;51.136;17.024;2022-11-20T06:08:54;22;21;13
70243;PMS7003;57634;51.136;17.024;2022-11-20T06:11:56;24;21;14
70243;PMS7003;57634;51.136;17.024;2022-11-20T06:14:58;25;23;14
70243;PMS7003;57634;51.136;17.024;2022-11-20T06:18:00;25;22;14
70243;PMS7003;57634;51.136;17.024;2022-11-20T06:21:06;20;14;8
70243;PMS7003;57634;51.136;17.024;2022-11-20T06:24:12;21;19;13
70243;PMS7003;57634;51.136;17.024;2022-11-20T06:27:14;26;21;14
70243;PMS7003;57634;51.136;17.024;2022-11-20T06:30:15;27;24;14
70243;PMS7003;57634;51.136;17.024;2022-11-20T06:33:16;28;26;16
70243;PMS7003;57634;51.136;17.024;2022-11-20T06:36:46;20;19;12
70243;PMS7003;57634;51.136;17.024;2022-11-20T06:39:48;20;19;12
70243;PMS7003;57634;51.136;17.024;2022-11-20T06:42:49;30;26;16
70243;PMS7003;57634;51.136;17.024;2022-11-20T06:45:52;35;31;20
70243;PMS7003;57634;51.136;17.024;2022-11-20T06:48:54;37;30;20
70243;PMS7003;57634;51.136;17.024;2022-11-20T06:51:56;31;26;17
70243;PMS7003;57634;51.136;17.024;2022-11-20T06:54:57;31;28;16
70243;PMS7003;57634;51.136;17.024;2022-11-20T06:57:58;31;28;18
70243;PMS7003;57634;51.136;17.024;2022-11-20T07:01:06;32;28;17
70243;PMS7003;57634;51.136;17.024;2022-11-20T07:04:09;37;32;20
70243;PMS7003;57634;51.136;17.024;2022-11-20T07:07:10;34;29;19
70243;PMS7003;57634;51.136;17.024;2022-11-20T07:10:11;38;31;20
70243;PMS7003;57634;51.136;17.024;2022-11-20T07:13:13;43;34;20
70243;PMS7003;57634;51.136;17.024;2022-11-20T07:16:41;23;19;18
70243;PMS7003;57634;51.136;17.024;2022-11-20T07:19:42;40;31;20
70243;PMS7003;57634;51.136;17.024;2022-11-20T07:22:44;36;31;20
70243;PMS7003;57634;51.136;17.024;2022-11-20T07:25:45;38;30;19
70243;PMS7003;57634;51.136;17.024;2022-11-20T07:28:46;35;32;20
70243;PMS7003;57634;51.136;17.024;2022-11-20T07:31:47;34;29;20
70243;PMS7003;57634;51.136;17.024;2022-11-20T07:34:49;40;31;21
70243;PMS7003;57634;51.136;17.024;2022-11-20T07:37:51;38;31;20
70243;PMS7003;57634;51.136;17.024;2022-11-20T07:40:54;36;32;21
70243;PMS7003;57634;51.136;17.024;2022-11-20T07:43:58;35;30;16
70243;PMS7003;57634;51.136;17.024;2022-11-20T07:46:59;43;33;21
70243;PMS7003;57634;51.136;17.024;2022-11-20T07:50:01;34;30;19
70243;PMS7003;57634;51.136;17.024;2022-11-20T07:53:03;30;27;18
70243;PMS7003;57634;51.136;17.024;2022-11-20T07:56:05;27;23;15
70243;PMS7003;57634;51.136;17.024;2022-11-20T07:59:33;26;24;15
70243;PMS7003;57634;51.136;17.024;2022-11-20T08:02:36;26;25;18
70243;PMS7003;57634;51.136;17.024;2022-11-20T08:05:41;31;29;19
70243;PMS7003;57634;51.136;17.024;2022-11-20T08:08:42;40;31;18
70243;PMS7003;57634;51.136;17.024;2022-11-20T08:11:44;33;31;21
70243;PMS7003;57634;51.136;17.024;2022-11-20T08:14:57;34;29;19
70243;PMS7003;57634;51.136;17.024;2022-11-20T08:18:03;32;27;16
70243;PMS7003;57634;51.136;17.024;2022-11-20T08:21:12;23;20;12
70243;PMS7003;57634;51.136;17.024;2022-11-20T08:24:40;31;28;17
70243;PMS7003;57634;51.136;17.024;2022-11-20T08:27:42;34;29;19
70243;PMS7003;57634;51.136;17.024;2022-11-20T08:30:43;32;29;19
70243;PMS7003;57634;51.136;17.024;2022-11-20T08:33:47;32;27;19
70243;PMS7003;57634;51.136;17.024;2022-11-20T08:36:48;35;29;18
70243;PMS7003;57634;51.136;17.024;2022-11-20T08:39:50;41;33;22
70243;PMS7003;57634;51.136;17.024;2022-11-20T08:42:51;46;36;22
70243;PMS7003;57634;51.136;17.024;2022-11-20T08:45:53;37;29;19
70243;PMS7003;57634;51.136;17.024;2022-11-20T08:48:54;36;30;20
70243;PMS7003;57634;51.136;17.024;2022-11-20T08:51:55;41;34;20
70243;PMS7003;57634;51.136;17.024;2022-11-20T08:54:57;35;29;17
70243;PMS7003;57634;51.136;17.024;2022-11-20T08:57:58;31;27;18
70243;PMS7003;57634;51.136;17.024;2022-11-20T09:01:04;36;29;20
70243;PMS7003;57634;51.136;17.024;2022-11-20T09:04:33;33;31;21
70243;PMS7003;57634;51.136;17.024;2022-11-20T09:07:34;29;26;18
70243;PMS7003;57634;51.136;17.024;2022-11-20T09:10:35;41;34;22
70243;PMS7003;57634;51.136;17.024;2022-11-20T09:13:40;35;29;20
70243;PMS7003;57634;51.136;17.024;2022-11-20T09:16:41;32;27;17
70243;PMS7003;57634;51.136;17.024;2022-11-20T09:19:43;31;28;19
70243;PMS7003;57634;51.136;17.024;2022-11-20T09:22:44;21;16;11
70243;PMS7003;57634;51.136;17.024;2022-11-20T09:25:45;24;24;17
70243;PMS7003;57634;51.136;17.024;2022-11-20T09:28:46;30;25;16
70243;PMS7003;57634;51.136;17.024;2022-11-20T09:31:48;26;23;15
70243;PMS7003;57634;51.136;17.024;2022-11-20T09:34:49;25;23;14
70243;PMS7003;57634;51.136;17.024;2022-11-20T09:37:51;26;24;16
70243;PMS7003;57634;51.136;17.024;2022-11-20T09:51:06;32;29;20
70243;PMS7003;57634;51.136;17.024;2022-11-20T09:54:15;38;31;19
70243;PMS7003;57634;51.136;17.024;2022-11-20T09:57:25;37;28;18
70243;PMS7003;57634;51.136;17.024;2022-11-20T10:01:00;32;27;18
70243;PMS7003;57634;51.136;17.024;2022-11-20T10:04:14;27;24;17
70243;PMS7003;57634;51.136;17.024;2022-11-20T10:07:21;24;21;13
70243;PMS7003;57634;51.136;17.024;2022-11-20T10:10:29;23;20;12
70243;PMS7003;57634;51.136;17.024;2022-11-20T10:23:48;21;18;13
70243;PMS7003;57634;51.136;17.024;2022-11-20T10:27:05;22;20;12
70243;PMS7003;57634;51.136;17.024;2022-11-20T10:30:38;19;17;10
70243;PMS7003;57634;51.136;17.024;2022-11-20T10:33:44;20;18;11
70243;PMS7003;57634;51.136;17.024;2022-11-20T10:36:55;19;17;10
70243;PMS7003;57634;51.136;17.024;2022-11-20T10:43:19;21;21;14
70243;PMS7003;57634;51.136;17.024;2022-11-20T10:46:54;20;18;11
70243;PMS7003;57634;51.136;17.024;2022-11-20T10:49:56;22;20;12
70243;PMS7003;57634;51.136;17.024;2022-11-20T10:56:27;16;14;9
70243;PMS7003;57634;51.136;17.024;2022-11-20T11:06:33;18;15;10
70243;PMS7003;57634;51.136;17.024;2022-11-20T11:09:43;25;21;13
70243;PMS7003;57634;51.136;17.024;2022-11-20T11:12:45;19;18;10
70243;PMS7003;57634;51.136;17.024;2022-11-20T11:15:49;19;18;11
70243;PMS7003;57634;51.136;17.024;2022-11-20T11:18:51;18;15;10
70243;PMS7003;57634;51.136;17.024;2022-11-20T11:22:25;16;14;10
70243;PMS7003;57634;51.136;17.024;2022-11-20T11:25:30;21;18;12
70243;PMS7003;57634;51.136;17.024;2022-11-20T11:28:37;17;15;10
70243;PMS7003;57634;51.136;17.024;2022-11-20T11:31:39;18;15;9
70243;PMS7003;57634;51.136;17.024;2022-11-20T11:35:50;13;12;8
70243;PMS7003;57634;51.136;17.024;2022-11-20T11:38:54;15;13;9
70243;PMS7003;57634;51.136;17.024;2022-11-20T11:41:56;12;12;8
70243;PMS7003;57634;51.136;17.024;2022-11-20T11:44:59;14;13;9
70243;PMS7003;57634;51.136;17.024;2022-11-20T11:48:07;12;12;7
70243;PMS7003;57634;51.136;17.024;2022-11-20T11:51:09;12;11;8
70243;PMS7003;57634;51.136;17.024;2022-11-20T11:54:16;19;14;9
70243;PMS7003;57634;51.136;17.024;2022-11-20T11:57:26;15;13;8
70243;PMS7003;57634;51.136;17.024;2022-11-20T12:01:03;13;11;8
70243;PMS7003;57634;51.136;17.024;2022-11-20T12:17:32;14;13;8
70243;PMS7003;57634;51.136;17.024;2022-11-20T12:20:35;14;12;8
70243;PMS7003;57634;51.136;17.024;2022-11-20T12:23:47;14;13;8
70243;PMS7003;57634;51.136;17.024;2022-11-20T12:30:48;11;10;7
70243;PMS7003;57634;51.136;17.024;2022-11-20T12:44:12;14;12;8
70243;PMS7003;57634;51.136;17.024;2022-11-20T12:50:48;16;13;7
70243;PMS7003;57634;51.136;17.024;2022-11-20T12:54:29;13;11;8
70243;PMS7003;57634;51.136;17.024;2022-11-20T13:07:46;15;14;8
70243;PMS7003;57634;51.136;17.024;2022-11-20T13:10:54;19;18;13
70243;PMS7003;57634;51.136;17.024;2022-11-20T13:20:28;15;7;4
70243;PMS7003;57634;51.136;17.024;2022-11-20T13:30:22;7;4;2
70243;PMS7003;57634;51.136;17.024;2022-11-20T13:33:31;11;11;9
70243;PMS7003;57634;51.136;17.024;2022-11-20T13:36:35;13;12;8
70243;PMS7003;57634;51.136;17.024;2022-11-20T13:39:37;12;7;5
70243;PMS7003;57634;51.136;17.024;2022-11-20T13:42:40;15;11;8
70243;PMS7003;57634;51.136;17.024;2022-11-20T13:46:17;14;13;7
70243;PMS7003;57634;51.136;17.024;2022-11-20T13:49:26;13;12;8
70243;PMS7003;57634;51.136;17.024;2022-11-20T13:55:51;13;11;6
70243;PMS7003;57634;51.136;17.024;2022-11-20T14:02:37;11;9;4
70243;PMS7003;57634;51.136;17.024;2022-11-20T14:05:39;11;9;7
70243;PMS7003;57634;51.136;17.024;2022-11-20T14:08:49;12;9;6
70243;PMS7003;57634;51.136;17.024;2022-11-20T14:11:51;11;10;7
70243;PMS7003;57634;51.136;17.024;2022-11-20T14:14:53;11;9;6
70243;PMS7003;57634;51.136;17.024;2022-11-20T14:17:56;11;10;7
70243;PMS7003;57634;51.136;17.024;2022-11-20T14:21:00;11;10;4
70243;PMS7003;57634;51.136;17.024;2022-11-20T14:24:05;16;13;9
70243;PMS7003;57634;51.136;17.024;2022-11-20T14:27:25;25;22;14
70243;PMS7003;57634;51.136;17.024;2022-11-20T14:30:44;17;13;9
70243;PMS7003;57634;51.136;17.024;2022-11-20T14:33:48;11;10;7
70243;PMS7003;57634;51.136;17.024;2022-11-20T14:40:00;11;10;7
70243;PMS7003;57634;51.136;17.024;2022-11-20T14:43:02;13;13;8
70243;PMS7003;57634;51.136;17.024;2022-11-20T14:46:13;12;12;8
70243;PMS7003;57634;51.136;17.024;2022-11-20T14:49:16;13;11;7
70243;PMS7003;57634;51.136;17.024;2022-11-20T14:52:19;10;9;5
70243;PMS7003;57634;51.136;17.024;2022-11-20T14:58:59;9;8;6
70243;PMS7003;57634;51.136;17.024;2022-11-20T15:02:02;11;10;6
70243;PMS7003;57634;51.136;17.024;2022-11-20T15:05:07;9;9;5
70243;PMS7003;57634;51.136;17.024;2022-11-20T15:08:08;11;10;7
70243;PMS7003;57634;51.136;17.024;2022-11-20T15:14:26;11;9;6
70243;PMS7003;57634;51.136;17.024;2022-11-20T15:17:30;20;18;13
70243;PMS7003;57634;51.136;17.024;2022-11-20T15:20:32;19;17;12
70243;PMS7003;57634;51.136;17.024;2022-11-20T15:23:36;17;13;8
70243;PMS7003;57634;51.136;17.024;2022-11-20T15:27:04;13;12;9
70243;PMS7003;57634;51.136;17.024;2022-11-20T15:30:11;16;16;10
70243;PMS7003;57634;51.136;17.024;2022-11-20T15:33:17;17;17;11
70243;PMS7003;57634;51.136;17.024;2022-11-20T15:36:19;16;14;8
70243;PMS7003;57634;51.136;17.024;2022-11-20T15:39:20;16;14;9
70243;PMS7003;57634;51.136;17.024;2022-11-20T15:42:22;18;16;9
70243;PMS7003;57634;51.136;17.024;2022-11-20T15:45:23;14;11;7
70243;PMS7003;57634;51.136;17.024;2022-11-20T15:48:26;18;13;10
70243;PMS7003;57634;51.136;17.024;2022-11-20T15:51:30;16;13;9
70243;PMS7003;57634;51.136;17.024;2022-11-20T15:54:34;16;15;9
70243;PMS7003;57634;51.136;17.024;2022-11-20T15:57:35;28;25;13
70243;PMS7003;57634;51.136;17.024;2022-11-20T16:01:03;17;15;9
70243;PMS7003;57634;51.136;17.024;2022-11-20T16:04:04;18;15;9
70243;PMS7003;57634;51.136;17.024;2022-11-20T16:07:10;14;13;8
70243;PMS7003;57634;51.136;17.024;2022-11-20T16:10:11;13;12;7
70243;PMS7003;57634;51.136;17.024;2022-11-20T16:13:13;14;13;8
70243;PMS7003;57634;51.136;17.024;2022-11-20T16:16:29;16;13;7
70243;PMS7003;57634;51.136;17.024;2022-11-20T16:19:33;15;14;9
70243;PMS7003;57634;51.136;17.024;2022-11-20T16:22:35;18;16;11
70243;PMS7003;57634;51.136;17.024;2022-11-20T16:25:36;17;15;10
70243;PMS7003;57634;51.136;17.024;2022-11-20T16:28:37;20;16;11
70243;PMS7003;57634;51.136;17.024;2022-11-20T16:32:05;20;17;12
70243;PMS7003;57634;51.136;17.024;2022-11-20T16:35:06;18;18;11
70243;PMS7003;57634;51.136;17.024;2022-11-20T16:38:08;18;16;10
70243;PMS7003;57634;51.136;17.024;2022-11-20T16:41:10;19;17;9
70243;PMS7003;57634;51.136;17.024;2022-11-20T16:44:14;19;16;10
70243;PMS7003;57634;51.136;17.024;2022-11-20T16:47:16;17;13;11
70243;PMS7003;57634;51.136;17.024;2022-11-20T16:50:17;21;16;11
70243;PMS7003;57634;51.136;17.024;2022-11-20T16:53:18;19;17;11
70243;PMS7003;57634;51.136;17.024;2022-11-20T16:56:23;20;18;11
70243;PMS7003;57634;51.136;17.024;2022-11-20T16:59:26;24;21;14
70243;PMS7003;57634;51.136;17.024;2022-11-20T17:02:27;20;17;11
70243;PMS7003;57634;51.136;17.024;2022-11-20T17:05:29;16;16;11
70243;PMS7003;57634;51.136;17.024;2022-11-20T17:08:30;19;16;9
70243;PMS7003;57634;51.136;17.024;2022-11-20T17:11:58;20;17;10
70243;PMS7003;57634;51.136;17.024;2022-11-20T17:15:00;18;17;10
70243;PMS7003;57634;51.136;17.024;2022-11-20T17:18:01;20;18;12
70243;PMS7003;57634;51.136;17.024;2022-11-20T17:21:04;23;18;11
70243;PMS7003;57634;51.136;17.024;2022-11-20T17:24:06;33;31;20
70243;PMS7003;57634;51.136;17.024;2022-11-20T17:27:10;23;21;14
70243;PMS7003;57634;51.136;17.024;2022-11-20T17:30:11;25;22;15
70243;PMS7003;57634;51.136;17.024;2022-11-20T17:33:13;24;22;12
70243;PMS7003;57634;51.136;17.024;2022-11-20T17:36:14;18;14;6
70243;PMS7003;57634;51.136;17.024;2022-11-20T17:39:17;28;23;14
70243;PMS7003;57634;51.136;17.024;2022-11-20T17:42:19;24;23;15
70243;PMS7003;57634;51.136;17.024;2022-11-20T17:45:27;22;20;13
70243;PMS7003;57634;51.136;17.024;2022-11-20T17:48:55;26;24;17
70243;PMS7003;57634;51.136;17.024;2022-11-20T17:51:56;22;20;12
70243;PMS7003;57634;51.136;17.024;2022-11-20T17:54:57;25;22;14
70243;PMS7003;57634;51.136;17.024;2022-11-20T17:57:59;26;24;15
70243;PMS7003;57634;51.136;17.024;2022-11-20T18:01:06;20;16;12
70243;PMS7003;57634;51.136;17.024;2022-11-20T18:04:08;24;21;14
70243;PMS7003;57634;51.136;17.024;2022-11-20T18:07:10;18;14;9
70243;PMS7003;57634;51.136;17.024;2022-11-20T18:10:12;30;26;16
70243;PMS7003;57634;51.136;17.024;2022-11-20T18:13:14;32;27;17
70243;PMS7003;57634;51.136;17.024;2022-11-20T18:16:15;26;22;12
70243;PMS7003;57634;51.136;17.024;2022-11-20T18:19:18;22;20;13
70243;PMS7003;57634;51.136;17.024;2022-11-20T18:22:21;37;33;21
70243;PMS7003;57634;51.136;17.024;2022-11-20T18:25:50;19;17;9
70243;PMS7003;57634;51.136;17.024;2022-11-20T18:28:51;25;23;15
70243;PMS7003;57634;51.136;17.024;2022-11-20T18:31:53;23;21;15
70243;PMS7003;57634;51.136;17.024;2022-11-20T18:34:55;27;24;15
70243;PMS7003;57634;51.136;17.024;2022-11-20T18:37:56;29;23;16
70243;PMS7003;57634;51.136;17.024;2022-11-20T18:40:57;26;25;17
70243;PMS7003;57634;51.136;17.024;2022-11-20T18:43:59;35;29;19
70243;PMS7003;57634;51.136;17.024;2022-11-20T18:47:15;35;31;21
70243;PMS7003;57634;51.136;17.024;2022-11-20T18:50:18;34;27;16
70243;PMS7003;57634;51.136;17.024;2022-11-20T18:53:19;27;24;15
70243;PMS7003;57634;51.136;17.024;2022-11-20T18:56:20;34;30;20
70243;PMS7003;57634;51.136;17.024;2022-11-20T18:59:50;39;30;19
70243;PMS7003;57634;51.136;17.024;2022-11-20T19:02:53;34;28;20
70243;PMS7003;57634;51.136;17.024;2022-11-20T19:05:55;23;19;8
70243;PMS7003;57634;51.136;17.024;2022-11-20T19:08:56;35;32;19
70243;PMS7003;57634;51.136;17.024;2022-11-20T19:11:57;33;28;19
70243;PMS7003;57634;51.136;17.024;2022-11-20T19:14:59;31;27;17
70243;PMS7003;57634;51.136;17.024;2022-11-20T19:18:01;19;18;15
70243;PMS7003;57634;51.136;17.024;2022-11-20T19:24:11;28;24;15
70243;PMS7003;57634;51.136;17.024;2022-11-20T19:27:13;24;22;13
70243;PMS7003;57634;51.136;17.024;2022-11-20T19:30:15;24;22;16
70243;PMS7003;57634;51.136;17.024;2022-11-20T19:33:17;27;22;14
70243;PMS7003;57634;51.136;17.024;2022-11-20T19:36:46;14;14;7
70243;PMS7003;57634;51.136;17.024;2022-11-20T19:39:47;26;24;15
70243;PMS7003;57634;51.136;17.024;2022-11-20T19:42:49;27;23;17
70243;PMS7003;57634;51.136;17.024;2022-11-20T19:45:51;28;25;17
70243;PMS7003;57634;51.136;17.024;2022-11-20T19:48:53;35;30;19
70243;PMS7003;57634;51.136;17.024;2022-11-20T19:51:55;40;31;17
70243;PMS7003;57634;51.136;17.024;2022-11-20T19:54:56;25;22;14
70243;PMS7003;57634;51.136;17.024;2022-11-20T19:57:57;27;23;16
70243;PMS7003;57634;51.136;17.024;2022-11-20T20:04:11;25;22;14
70243;PMS7003;57634;51.136;17.024;2022-11-20T20:07:12;27;22;15
70243;PMS7003;57634;51.136;17.024;2022-11-20T20:10:14;39;31;21
70243;PMS7003;57634;51.136;17.024;2022-11-20T20:13:44;21;16;9
70243;PMS7003;57634;51.136;17.024;2022-11-20T20:16:46;24;21;14
70243;PMS7003;57634;51.136;17.024;2022-11-20T20:19:48;15;14;12
70243;PMS7003;57634;51.136;17.024;2022-11-20T20:22:49;23;22;14
70243;PMS7003;57634;51.136;17.024;2022-11-20T20:25:50;18;18;12
70243;PMS7003;57634;51.136;17.024;2022-11-20T20:28:51;22;20;12
70243;PMS7003;57634;51.136;17.024;2022-11-20T20:31:52;22;18;11
70243;PMS7003;57634;51.136;17.024;2022-11-20T20:34:54;21;21;12
70243;PMS7003;57634;51.136;17.024;2022-11-20T20:37:55;10;6;1
70243;PMS7003;57634;51.136;17.024;2022-11-20T20:40:57;24;18;12
70243;PMS7003;57634;51.136;17.024;2022-11-20T20:43:59;22;18;11
70243;PMS7003;57634;51.136;17.024;2022-11-20T20:47:42;23;19;12
70243;PMS7003;57634;51.136;17.024;2022-11-20T20:53:57;22;19;13
70243;PMS7003;57634;51.136;17.024;2022-11-20T20:56:59;28;24;15
70243;PMS7003;57634;51.136;17.024;2022-11-20T21:00:01;29;24;16
70243;PMS7003;57634;51.136;17.024;2022-11-20T21:03:05;26;20;12
70243;PMS7003;57634;51.136;17.024;2022-11-20T21:06:06;28;24;15
70243;PMS7003;57634;51.136;17.024;2022-11-20T21:09:09;26;24;16
70243;PMS7003;57634;51.136;17.024;2022-11-20T21:12:11;26;22;15
70243;PMS7003;57634;51.136;17.024;2022-11-20T21:15:12;29;25;15
70243;PMS7003;57634;51.136;17.024;2022-11-20T21:18:14;29;26;16
70243;PMS7003;57634;51.136;17.024;2022-11-20T21:21:43;24;22;14
70243;PMS7003;57634;51.136;17.024;2022-11-20T21:24:56;26;23;14
70243;PMS7003;57634;51.136;17.024;2022-11-20T21:27:58;28;25;16
70243;PMS7003;57634;51.136;17.024;2022-11-20T21:31:04;22;20;13
70243;PMS7003;57634;51.136;17.024;2022-11-20T21:34:10;23;22;13
70243;PMS7003;57634;51.136;17.024;2022-11-20T21:37:13;28;25;17
70243;PMS7003;57634;51.136;17.024;2022-11-20T21:40:15;34;30;21
70243;PMS7003;57634;51.136;17.024;2022-11-20T21:43:16;25;23;15